Time;durP1;ratioP1;P1;durP2;ratioP2;P2;SDS_P1;SDS_P2;PMS_P1;PMS_P2;Temp;Humidity;BMP_temperature;BMP_pressure;BME280_temperature;BME280_humidity;BME280_pressure;Samples;Min_cycle;Max_cycle;Signal;HPM_P1;HPM_P2
2023/06/05 00:00:38;;;;;;;7.13;2.07;;;14.60;99.90;;;;;;5114396;28;20170;-48
2023/06/05 00:03:04;;;;;;;6.37;2.33;;;14.50;99.90;;;;;;5112933;28;20592;-47
2023/06/05 00:05:31;;;;;;;4.47;2.47;;;14.60;99.90;;;;;;5114190;28;20239;-47
2023/06/05 00:07:56;;;;;;;5.20;2.53;;;14.60;99.90;;;;;;5114979;28;20261;-49
2023/06/05 00:10:22;;;;;;;7.87;2.30;;;14.50;99.90;;;;;;5112985;28;20661;-49
2023/06/05 00:12:48;;;;;;;6.13;2.30;;;14.50;99.90;;;;;;5114490;28;20261;-47
2023/06/05 00:15:13;;;;;;;3.50;2.20;;;14.50;99.90;;;;;;5114340;28;20609;-48
2023/06/05 00:17:39;;;;;;;7.27;2.27;;;14.40;99.90;;;;;;5114188;28;20220;-46
2023/06/05 00:20:05;;;;;;;4.10;2.20;;;14.40;99.90;;;;;;5114034;28;20170;-48
2023/06/05 00:22:33;;;;;;;7.00;2.80;;;14.40;99.90;;;;;;5113986;28;20209;-49
2023/06/05 00:24:59;;;;;;;3.07;1.90;;;14.40;99.90;;;;;;5114136;28;20201;-50
2023/06/05 00:27:25;;;;;;;5.60;2.77;;;14.30;99.90;;;;;;5114011;28;20631;-50
2023/06/05 00:29:50;;;;;;;6.80;2.90;;;14.30;99.90;;;;;;5113945;28;20166;-47
2023/06/05 00:32:16;;;;;;;5.03;2.27;;;14.30;99.90;;;;;;5113914;28;20201;-47
2023/06/05 00:34:42;;;;;;;6.97;2.60;;;14.30;99.90;;;;;;5113684;28;20612;-49
2023/06/05 00:37:07;;;;;;;5.23;2.40;;;14.20;99.90;;;;;;5113748;28;20190;-48
2023/06/05 00:39:33;;;;;;;4.23;2.10;;;14.20;99.90;;;;;;5114093;28;20182;-48
2023/06/05 00:41:58;;;;;;;5.07;1.93;;;14.20;99.90;;;;;;5114055;28;20619;-49
2023/06/05 00:44:24;;;;;;;5.63;2.37;;;14.20;99.90;;;;;;5113663;28;20269;-49
2023/06/05 00:46:52;;;;;;;8.53;3.07;;;14.20;99.90;;;;;;5114012;28;20189;-49
2023/06/05 00:49:19;;;;;;;4.63;2.50;;;14.20;99.90;;;;;;5113737;28;20232;-49
2023/06/05 00:51:46;;;;;;;5.40;2.53;;;14.20;99.90;;;;;;5113646;28;20179;-41
2023/06/05 00:54:13;;;;;;;3.87;2.50;;;14.10;99.90;;;;;;5114072;28;20567;-43
2023/06/05 00:56:40;;;;;;;4.53;2.10;;;14.10;99.90;;;;;;5113818;28;20273;-41
2023/06/05 00:59:07;;;;;;;4.63;2.10;;;14.10;99.90;;;;;;5112562;28;20670;-43
2023/06/05 01:01:34;;;;;;;4.77;2.13;;;14.10;99.90;;;;;;5113833;28;20530;-41
2023/06/05 01:04:03;;;;;;;7.57;2.37;;;14.10;99.90;;;;;;5114109;28;20198;-43
2023/06/05 01:06:33;;;;;;;4.20;2.10;;;14.00;99.90;;;;;;5112934;28;20248;-43
2023/06/05 01:09:00;;;;;;;8.40;2.23;;;14.10;99.90;;;;;;5114222;28;20167;-42
2023/06/05 01:11:44;;;;;;;5.30;2.40;;;14.00;99.90;;;;;;5113956;28;20174;-43
2023/06/05 01:14:22;;;;;;;5.93;2.10;;;14.00;99.90;;;;;;5114237;28;20213;-43
2023/06/05 01:16:56;;;;;;;5.20;2.20;;;13.90;99.90;;;;;;5114011;28;20177;-42
2023/06/05 01:19:28;;;;;;;4.10;2.30;;;13.90;99.90;;;;;;5112299;28;20202;-42
2023/06/05 01:21:57;;;;;;;4.07;2.20;;;13.90;99.90;;;;;;5114095;28;20191;-42
2023/06/05 01:24:25;;;;;;;4.47;2.07;;;13.80;99.90;;;;;;5113390;28;20678;-43
2023/06/05 01:27:03;;;;;;;3.57;2.23;;;13.80;99.90;;;;;;5095347;28;20180;-43
2023/06/05 01:29:37;;;;;;;3.97;2.47;;;13.80;99.90;;;;;;5113674;28;20165;-41
2023/06/05 01:32:15;;;;;;;4.27;2.40;;;13.70;99.90;;;;;;5113801;28;20167;-41
2023/06/05 01:34:43;;;;;;;9.63;2.57;;;13.70;99.90;;;;;;5113692;28;20221;-42
2023/06/05 01:37:12;;;;;;;8.47;2.50;;;13.70;99.90;;;;;;5114031;28;20550;-42
2023/06/05 01:39:40;;;;;;;3.90;2.33;;;13.60;99.90;;;;;;5114238;28;20190;-43
2023/06/05 01:42:07;;;;;;;2.97;2.20;;;13.60;99.90;;;;;;5114662;28;20650;-43
2023/06/05 01:44:33;;;;;;;5.30;2.27;;;13.50;99.90;;;;;;5114452;28;20690;-40
2023/06/05 01:46:59;;;;;;;7.33;2.63;;;13.50;99.90;;;;;;5117501;28;20174;-42
2023/06/05 01:49:25;;;;;;;10.23;2.23;;;13.50;99.90;;;;;;5117234;28;20174;-43
2023/06/05 01:51:51;;;;;;;6.83;2.13;;;13.50;99.90;;;;;;5116995;28;20628;-40
2023/06/05 01:54:18;;;;;;;6.23;2.23;;;13.50;99.90;;;;;;5117433;28;20194;-42
2023/06/05 01:56:44;;;;;;;6.77;2.57;;;13.40;99.90;;;;;;5117030;28;20174;-41
2023/06/05 01:59:09;;;;;;;8.80;2.50;;;13.40;99.90;;;;;;5116754;28;20285;-42
2023/06/05 02:01:35;;;;;;;5.67;2.20;;;13.30;99.90;;;;;;5116689;28;20540;-41
2023/06/05 02:04:05;;;;;;;7.20;2.60;;;13.40;99.90;;;;;;5116570;28;20727;-42
2023/06/05 02:06:42;;;;;;;5.13;2.40;;;13.30;99.90;;;;;;5117016;28;20185;-42
2023/06/05 02:09:12;;;;;;;5.43;2.30;;;13.30;99.90;;;;;;5116975;28;20240;-43
2023/06/05 02:11:39;;;;;;;12.13;2.93;;;13.20;99.90;;;;;;5116495;28;20669;-43
2023/06/05 02:14:08;;;;;;;6.57;2.70;;;13.20;99.90;;;;;;5116606;28;20662;-42
2023/06/05 02:16:36;;;;;;;6.87;2.57;;;13.20;99.90;;;;;;5116519;28;20181;-41
2023/06/05 02:19:03;;;;;;;4.27;2.70;;;13.20;99.90;;;;;;5116924;28;20202;-44
2023/06/05 02:21:32;;;;;;;6.80;2.37;;;13.10;99.90;;;;;;5116333;28;20178;-42
2023/06/05 02:23:58;;;;;;;6.17;2.47;;;13.10;99.90;;;;;;5116404;28;20272;-44
2023/06/05 02:26:25;;;;;;;3.77;2.60;;;13.00;99.90;;;;;;5116491;28;20215;-43
2023/06/05 02:28:53;;;;;;;3.93;2.53;;;13.00;99.90;;;;;;5117174;28;20185;-44
2023/06/05 02:31:24;;;;;;;7.50;3.00;;;12.90;99.90;;;;;;5116886;28;20234;-41
2023/06/05 02:33:50;;;;;;;5.47;2.77;;;12.80;99.90;;;;;;5114968;28;20544;-43
2023/06/05 02:36:16;;;;;;;5.83;3.00;;;12.80;99.90;;;;;;5116466;28;20176;-40
2023/06/05 02:38:42;;;;;;;5.77;3.23;;;12.70;99.90;;;;;;5114797;28;20710;-43
2023/06/05 02:41:09;;;;;;;7.27;2.67;;;12.60;99.90;;;;;;5116356;28;20516;-42
2023/06/05 02:43:34;;;;;;;7.03;2.97;;;12.60;99.90;;;;;;5116165;28;20251;-42
2023/06/05 02:46:00;;;;;;;4.67;2.97;;;12.50;99.90;;;;;;5116250;28;20633;-42
2023/06/05 02:48:26;;;;;;;7.73;3.20;;;12.50;99.90;;;;;;5115798;28;20205;-42
2023/06/05 02:50:51;;;;;;;6.03;2.87;;;12.50;99.90;;;;;;5115748;28;20174;-42
2023/06/05 02:53:17;;;;;;;6.17;3.07;;;12.40;99.90;;;;;;5116073;28;20190;-47
2023/06/05 02:55:43;;;;;;;5.70;2.67;;;12.40;99.90;;;;;;5115613;28;20237;-46
2023/06/05 02:58:12;;;;;;;4.97;2.83;;;12.40;99.90;;;;;;5114211;28;20662;-47
2023/06/05 03:00:38;;;;;;;8.23;3.00;;;12.40;99.90;;;;;;5115727;28;20179;-46
2023/06/05 03:03:06;;;;;;;6.23;3.10;;;12.40;99.90;;;;;;5115707;28;20623;-47
2023/06/05 03:05:33;;;;;;;5.20;2.60;;;12.40;99.90;;;;;;5115431;28;20254;-47
2023/06/05 03:08:01;;;;;;;5.33;2.80;;;12.30;99.90;;;;;;5115501;28;20177;-47
2023/06/05 03:10:27;;;;;;;8.47;3.07;;;12.40;99.90;;;;;;5115824;28;20178;-45
2023/06/05 03:12:53;;;;;;;4.87;2.90;;;12.40;99.90;;;;;;5115377;28;20543;-48
2023/06/05 03:15:18;;;;;;;4.17;2.53;;;12.30;99.90;;;;;;5114039;28;20174;-47
2023/06/05 03:17:45;;;;;;;9.83;3.30;;;12.30;99.90;;;;;;5115171;28;20580;-46
2023/06/05 03:20:12;;;;;;;4.93;3.07;;;12.30;99.90;;;;;;5115891;28;20633;-46
2023/06/05 03:22:38;;;;;;;5.47;3.10;;;12.30;99.90;;;;;;5115108;28;20163;-46
2023/06/05 03:25:04;;;;;;;6.97;2.97;;;12.20;99.90;;;;;;5115166;28;20198;-48
2023/06/05 03:27:30;;;;;;;7.93;3.03;;;12.30;99.90;;;;;;5115256;28;20179;-47
2023/06/05 03:29:58;;;;;;;4.37;2.90;;;12.30;99.90;;;;;;5115199;28;20265;-46
2023/06/05 03:32:24;;;;;;;7.60;3.20;;;12.30;99.90;;;;;;5115174;28;20182;-47
2023/06/05 03:34:49;;;;;;;8.90;3.27;;;12.30;99.90;;;;;;5114725;28;20194;-46
2023/06/05 03:37:15;;;;;;;4.10;3.03;;;12.20;99.90;;;;;;5114522;28;20228;-46
2023/06/05 03:39:41;;;;;;;5.03;3.00;;;12.20;99.90;;;;;;5114872;28;20178;-46
2023/06/05 03:42:09;;;;;;;6.20;2.90;;;12.10;99.90;;;;;;5114689;28;20648;-48
2023/06/05 03:44:34;;;;;;;5.40;3.03;;;12.10;99.90;;;;;;5114816;28;20209;-49
2023/06/05 03:47:00;;;;;;;5.03;3.50;;;12.00;99.90;;;;;;5115428;28;20174;-50
2023/06/05 03:49:28;;;;;;;5.43;3.00;;;11.90;99.90;;;;;;5114847;28;20190;-48
2023/06/05 03:52:00;;;;;;;12.60;3.70;;;11.90;99.90;;;;;;5113231;28;20557;-48
2023/06/05 03:54:32;;;;;;;4.67;2.90;;;11.90;99.90;;;;;;5114477;28;20202;-48
2023/06/05 03:57:00;;;;;;;7.47;3.20;;;11.90;99.90;;;;;;5114775;28;20171;-49
2023/06/05 03:59:28;;;;;;;6.57;3.13;;;11.90;99.90;;;;;;5114314;28;20203;-50
2023/06/05 04:01:55;;;;;;;6.63;3.40;;;11.80;99.90;;;;;;5114357;28;20257;-48
2023/06/05 04:04:21;;;;;;;6.50;2.97;;;11.90;99.90;;;;;;5114145;28;20247;-49
2023/06/05 04:06:47;;;;;;;9.83;3.20;;;11.90;99.90;;;;;;5114535;28;20178;-49
2023/06/05 04:09:13;;;;;;;6.53;2.90;;;11.90;99.90;;;;;;5113861;28;20227;-47
2023/06/05 04:11:43;;;;;;;5.80;2.90;;;11.90;99.90;;;;;;5114373;28;20182;-47
2023/06/05 04:14:10;;;;;;;6.87;3.37;;;11.90;99.90;;;;;;5114362;28;20202;-48
2023/06/05 04:16:39;;;;;;;6.80;3.10;;;11.80;99.90;;;;;;5114300;28;20186;-49
2023/06/05 04:19:06;;;;;;;7.37;3.33;;;11.90;99.90;;;;;;5114261;28;20205;-47
2023/06/05 04:21:35;;;;;;;9.53;3.30;;;11.80;99.90;;;;;;5114077;28;20178;-47
2023/06/05 04:24:06;;;;;;;10.27;3.53;;;11.90;99.90;;;;;;5114067;28;20202;-48
2023/06/05 04:26:36;;;;;;;4.97;3.10;;;11.90;99.90;;;;;;5114373;28;20505;-50
2023/06/05 04:29:02;;;;;;;8.60;3.60;;;11.90;99.90;;;;;;5112822;28;20192;-48
2023/06/05 04:31:31;;;;;;;5.27;3.17;;;11.90;99.90;;;;;;5114096;28;20171;-47
2023/06/05 04:33:57;;;;;;;7.40;2.90;;;11.90;99.90;;;;;;5113941;28;20221;-49
2023/06/05 04:36:22;;;;;;;7.50;3.83;;;12.00;99.90;;;;;;5114466;28;20178;-48
2023/06/05 04:38:48;;;;;;;4.47;2.93;;;12.00;99.90;;;;;;5113856;28;20213;-49
2023/06/05 04:41:13;;;;;;;5.67;3.33;;;12.00;99.90;;;;;;5114277;28;20681;-48
2023/06/05 04:43:40;;;;;;;7.83;3.70;;;12.00;99.90;;;;;;5113896;28;20247;-48
2023/06/05 04:46:05;;;;;;;5.23;3.40;;;12.10;99.90;;;;;;5114003;28;20707;-49
2023/06/05 04:48:31;;;;;;;6.83;3.30;;;12.10;99.90;;;;;;5114259;28;20182;-48
2023/06/05 04:50:57;;;;;;;6.60;3.70;;;12.10;99.90;;;;;;5113917;28;20218;-48
2023/06/05 04:53:24;;;;;;;7.13;3.70;;;12.20;99.90;;;;;;5113759;28;20605;-47
2023/06/05 04:55:49;;;;;;;6.33;3.33;;;12.30;99.90;;;;;;5113885;28;20265;-48
2023/06/05 04:58:16;;;;;;;7.73;3.90;;;12.30;99.90;;;;;;5114035;28;20284;-48
2023/06/05 05:00:44;;;;;;;8.23;3.73;;;12.40;99.90;;;;;;5114116;28;20595;-48
2023/06/05 05:03:13;;;;;;;7.70;3.93;;;12.50;99.90;;;;;;5113700;28;20208;-49
2023/06/05 05:05:39;;;;;;;5.27;3.50;;;12.50;99.90;;;;;;5114080;28;20186;-49
2023/06/05 05:08:05;;;;;;;7.83;3.43;;;12.50;99.90;;;;;;5113972;28;20232;-47
2023/06/05 05:10:31;;;;;;;11.13;3.87;;;12.60;99.90;;;;;;5113787;28;20186;-48
2023/06/05 05:12:56;;;;;;;6.67;3.50;;;12.60;99.90;;;;;;5113771;28;20166;-49
2023/06/05 05:15:22;;;;;;;6.97;3.47;;;12.70;99.90;;;;;;5114316;28;20216;-47
2023/06/05 05:17:49;;;;;;;7.93;3.63;;;12.70;99.90;;;;;;5113948;28;20202;-47
2023/06/05 05:20:14;;;;;;;7.00;3.67;;;12.70;99.90;;;;;;5114811;28;20182;-47
2023/06/05 05:22:40;;;;;;;9.67;3.53;;;12.80;99.90;;;;;;5117594;28;20174;-50
2023/06/05 05:25:06;;;;;;;4.93;3.27;;;12.90;99.90;;;;;;5117285;28;20266;-48
2023/06/05 05:27:32;;;;;;;7.43;3.80;;;12.90;99.90;;;;;;5117633;28;20182;-49
2023/06/05 05:29:57;;;;;;;7.33;3.63;;;13.00;99.90;;;;;;5116087;28;20657;-48
2023/06/05 05:32:23;;;;;;;6.97;3.70;;;13.10;99.90;;;;;;5117731;28;20187;-50
2023/06/05 05:34:50;;;;;;;9.33;3.90;;;13.10;99.90;;;;;;5115958;28;20210;-49
2023/06/05 05:37:16;;;;;;;7.07;3.80;;;13.20;99.90;;;;;;5117041;28;20186;-49
2023/06/05 05:39:41;;;;;;;7.73;3.53;;;13.20;99.90;;;;;;5117178;28;20178;-48
2023/06/05 05:42:07;;;;;;;11.37;4.00;;;13.30;99.90;;;;;;5117070;28;20584;-47
2023/06/05 05:44:33;;;;;;;5.80;3.47;;;13.30;99.90;;;;;;5117008;28;20209;-49
2023/06/05 05:46:58;;;;;;;7.23;3.77;;;13.40;99.90;;;;;;5115863;28;20217;-49
2023/06/05 05:49:24;;;;;;;6.40;3.43;;;13.50;99.90;;;;;;5117142;28;20178;-49
2023/06/05 05:51:50;;;;;;;7.93;4.13;;;13.50;99.90;;;;;;5116074;28;20635;-48
2023/06/05 05:54:16;;;;;;;12.57;4.17;;;13.60;99.90;;;;;;5117266;28;20246;-49
2023/06/05 05:56:42;;;;;;;9.90;3.80;;;13.60;99.90;;;;;;5116746;28;20489;-50
2023/06/05 05:59:08;;;;;;;8.83;4.00;;;13.70;99.90;;;;;;5116797;28;20632;-47
2023/06/05 06:01:33;;;;;;;8.57;4.00;;;13.80;99.90;;;;;;5116899;28;20200;-49
2023/06/05 06:03:59;;;;;;;5.53;3.40;;;13.80;99.90;;;;;;5116526;28;20670;-50
2023/06/05 06:06:24;;;;;;;7.60;4.00;;;13.90;99.90;;;;;;5116802;28;20174;-49
2023/06/05 06:08:50;;;;;;;7.10;3.90;;;14.00;99.90;;;;;;5116760;28;20705;-48
2023/06/05 06:11:16;;;;;;;7.10;3.77;;;14.10;99.90;;;;;;5116448;28;20187;-49
2023/06/05 06:13:43;;;;;;;6.47;3.83;;;14.20;99.90;;;;;;5116739;28;20564;-50
2023/06/05 06:16:08;;;;;;;6.00;3.80;;;14.30;99.90;;;;;;5116644;28;20184;-49
2023/06/05 06:18:34;;;;;;;8.67;3.43;;;14.40;99.90;;;;;;5116213;28;20202;-49
2023/06/05 06:21:00;;;;;;;6.67;3.40;;;14.60;99.90;;;;;;5116554;28;20174;-49
2023/06/05 06:23:26;;;;;;;8.37;3.87;;;14.60;99.90;;;;;;5116135;28;20206;-47
2023/06/05 06:25:51;;;;;;;13.07;3.87;;;14.70;99.90;;;;;;5116217;28;20185;-47
2023/06/05 06:28:17;;;;;;;6.93;3.57;;;14.80;99.90;;;;;;5116109;28;20185;-50
2023/06/05 06:30:43;;;;;;;13.77;3.67;;;14.90;99.90;;;;;;5115690;28;20231;-49
2023/06/05 06:33:09;;;;;;;10.87;3.63;;;15.10;99.90;;;;;;5115970;28;20248;-49
2023/06/05 06:35:34;;;;;;;17.23;4.00;;;15.20;99.90;;;;;;5115998;28;20182;-48
2023/06/05 06:38:00;;;;;;;11.30;3.70;;;15.20;99.90;;;;;;5115715;28;20701;-48
2023/06/05 06:40:28;;;;;;;6.93;3.73;;;15.30;99.90;;;;;;5116182;28;20515;-49
2023/06/05 06:42:55;;;;;;;7.07;3.30;;;15.40;99.90;;;;;;5116018;28;20189;-50
2023/06/05 06:45:21;;;;;;;8.57;3.77;;;15.50;99.90;;;;;;5116081;28;20178;-49
2023/06/05 06:47:46;;;;;;;10.67;3.87;;;15.60;99.90;;;;;;5115749;28;20188;-49
2023/06/05 06:50:13;;;;;;;9.73;3.23;;;15.80;99.90;;;;;;5115860;28;20186;-50
2023/06/05 06:52:39;;;;;;;11.77;4.07;;;15.80;99.90;;;;;;5115908;28;20182;-50
2023/06/05 06:55:06;;;;;;;9.40;3.00;;;16.00;99.90;;;;;;5115590;28;20621;-48
2023/06/05 06:57:32;;;;;;;8.43;3.50;;;16.30;99.90;;;;;;5115744;28;20213;-49
2023/06/05 06:59:57;;;;;;;8.50;3.33;;;16.50;99.90;;;;;;5115540;28;20213;-50
2023/06/05 07:02:25;;;;;;;6.17;3.40;;;16.50;99.90;;;;;;5115717;28;20623;-50
2023/06/05 07:04:50;;;;;;;9.13;3.30;;;16.60;99.90;;;;;;5115344;28;20213;-49
2023/06/05 07:07:17;;;;;;;4.30;3.10;;;16.70;99.90;;;;;;5115697;28;20179;-49
2023/06/05 07:09:45;;;;;;;7.33;3.10;;;16.80;99.90;;;;;;5115565;28;20182;-50
2023/06/05 07:12:13;;;;;;;7.63;3.00;;;16.80;99.90;;;;;;5115300;28;20213;-50
2023/06/05 07:14:40;;;;;;;11.43;3.93;;;17.00;99.90;;;;;;5115455;28;20299;-50
2023/06/05 07:17:05;;;;;;;12.10;2.87;;;17.10;99.90;;;;;;5115168;28;20254;-50
2023/06/05 07:19:32;;;;;;;8.03;3.27;;;17.10;99.90;;;;;;5115306;28;20294;-51
2023/06/05 07:22:00;;;;;;;10.87;3.23;;;17.20;99.90;;;;;;5115057;28;20210;-50
2023/06/05 07:24:28;;;;;;;10.43;3.20;;;17.20;99.90;;;;;;5114869;28;20198;-49
2023/06/05 07:26:55;;;;;;;7.40;3.30;;;17.30;99.90;;;;;;5114847;28;20311;-51
2023/06/05 07:29:23;;;;;;;7.67;3.20;;;17.50;99.90;;;;;;5115132;28;20182;-50
2023/06/05 07:31:49;;;;;;;10.23;3.20;;;17.60;99.90;;;;;;5115135;28;20236;-49
2023/06/05 07:34:15;;;;;;;4.80;3.03;;;17.80;99.90;;;;;;5115023;28;20208;-50
2023/06/05 07:36:40;;;;;;;8.50;3.00;;;17.90;99.90;;;;;;5114928;28;20182;-51
2023/06/05 07:39:06;;;;;;;11.30;3.60;;;18.00;99.90;;;;;;5115142;28;20703;-50
2023/06/05 07:41:32;;;;;;;10.90;2.87;;;18.10;99.90;;;;;;5113893;28;20174;-51
2023/06/05 07:43:57;;;;;;;9.83;3.23;;;18.20;99.90;;;;;;5113849;28;20225;-49
2023/06/05 07:46:23;;;;;;;5.43;2.70;;;18.30;99.90;;;;;;5115140;28;20231;-51
2023/06/05 07:48:49;;;;;;;7.37;3.43;;;18.30;99.90;;;;;;5114571;28;20193;-51
2023/06/05 07:51:15;;;;;;;7.10;3.37;;;18.50;99.90;;;;;;5114806;28;20190;-51
2023/06/05 07:53:43;;;;;;;8.47;3.30;;;18.60;99.90;;;;;;5114445;28;20247;-50
2023/06/05 07:56:08;;;;;;;6.83;2.80;;;18.70;99.90;;;;;;5116162;28;20587;-51
2023/06/05 07:58:35;;;;;;;3.83;2.73;;;18.80;99.90;;;;;;5113094;28;20206;-50
2023/06/05 08:01:00;;;;;;;10.20;3.47;;;18.90;99.90;;;;;;5114650;28;20288;-50
2023/06/05 08:03:26;;;;;;;9.80;2.87;;;18.90;99.90;;;;;;5114488;28;20673;-50
2023/06/05 08:05:51;;;;;;;6.27;3.30;;;18.90;99.90;;;;;;5114587;28;20539;-51
2023/06/05 08:08:18;;;;;;;7.50;3.00;;;19.00;99.90;;;;;;5114264;28;20256;-51
2023/06/05 08:10:43;;;;;;;10.00;4.20;;;19.00;99.90;;;;;;5114648;28;20185;-51
2023/06/05 08:13:09;;;;;;;7.10;3.00;;;19.10;99.90;;;;;;5114332;28;20178;-50
2023/06/05 08:15:35;;;;;;;6.33;3.00;;;19.10;99.90;;;;;;5114071;28;20248;-51
2023/06/05 08:18:01;;;;;;;4.10;2.63;;;19.20;99.90;;;;;;5114303;28;20209;-52
2023/06/05 08:20:27;;;;;;;6.43;2.80;;;19.40;99.90;;;;;;5113973;28;20229;-50
2023/06/05 08:22:57;;;;;;;7.80;3.07;;;19.60;99.90;;;;;;5114260;28;20213;-51
2023/06/05 08:25:26;;;;;;;10.77;3.40;;;19.70;99.90;;;;;;5114262;28;20208;-51
2023/06/05 08:27:52;;;;;;;4.87;3.07;;;19.70;99.90;;;;;;5114228;28;20190;-49
2023/06/05 08:30:18;;;;;;;6.43;3.27;;;19.70;99.90;;;;;;5114180;28;20193;-50
2023/06/05 08:32:43;;;;;;;4.70;3.10;;;19.90;99.90;;;;;;5113854;28;20213;-50
2023/06/05 08:35:13;;;;;;;8.07;3.83;;;20.00;99.90;;;;;;5114031;28;20202;-51
2023/06/05 08:37:39;;;;;;;5.43;2.90;;;20.20;99.90;;;;;;5113603;28;20682;-51
2023/06/05 08:40:06;;;;;;;6.73;3.60;;;20.20;99.90;;;;;;5114012;28;20178;-50
2023/06/05 08:42:32;;;;;;;6.73;3.53;;;20.30;99.90;;;;;;5112844;28;20189;-50
2023/06/05 08:44:58;;;;;;;9.20;3.63;;;20.40;99.90;;;;;;5112402;28;20232;-50
2023/06/05 08:47:28;;;;;;;5.10;3.40;;;20.50;99.90;;;;;;5113931;28;20206;-51
2023/06/05 08:49:54;;;;;;;8.97;4.10;;;20.60;99.90;;;;;;5113912;28;20178;-50
2023/06/05 08:52:23;;;;;;;6.70;3.40;;;20.70;99.90;;;;;;5113690;28;20269;-49
2023/06/05 08:54:49;;;;;;;3.87;2.60;;;20.80;99.90;;;;;;5115966;28;20574;-50
2023/06/05 08:57:16;;;;;;;6.77;2.70;;;21.00;99.90;;;;;;5117901;28;20189;-51
2023/06/05 08:59:44;;;;;;;8.17;3.90;;;21.20;99.90;;;;;;5117730;28;20704;-52
2023/06/05 09:02:10;;;;;;;8.47;3.97;;;21.20;99.90;;;;;;5118120;28;20715;-51
2023/06/05 09:04:38;;;;;;;9.40;4.10;;;21.20;99.90;;;;;;5117644;28;20269;-50
2023/06/05 09:07:04;;;;;;;10.27;4.03;;;21.20;99.90;;;;;;5117741;28;20178;-51
2023/06/05 09:09:32;;;;;;;7.53;3.67;;;21.20;99.90;;;;;;5117895;28;20190;-51
2023/06/05 09:12:02;;;;;;;8.80;3.40;;;21.20;99.90;;;;;;5117655;28;20179;-50
2023/06/05 09:14:27;;;;;;;6.93;3.50;;;21.10;99.90;;;;;;5117451;28;20714;-50
2023/06/05 09:16:53;;;;;;;8.60;3.80;;;21.20;99.90;;;;;;5118035;28;20254;-50
2023/06/05 09:19:24;;;;;;;9.40;3.80;;;21.30;99.90;;;;;;5117376;28;20272;-50
2023/06/05 09:21:54;;;;;;;5.03;2.80;;;21.30;99.90;;;;;;5116189;28;20268;-50
2023/06/05 09:24:22;;;;;;;7.80;3.30;;;21.40;99.90;;;;;;5117883;28;20226;-49
2023/06/05 09:26:51;;;;;;;9.63;3.70;;;21.40;99.90;;;;;;5117278;28;20643;-48
2023/06/05 09:29:37;;;;;;;10.77;3.43;;;21.30;99.90;;;;;;5117246;28;20181;-50
2023/06/05 09:32:07;;;;;;;7.53;3.40;;;21.50;99.90;;;;;;5117187;28;20167;-50
2023/06/05 09:34:35;;;;;;;12.10;3.53;;;21.50;99.90;;;;;;5117053;28;20209;-50
2023/06/05 09:37:03;;;;;;;8.50;3.40;;;21.70;99.90;;;;;;5116924;28;20198;-50
2023/06/05 09:39:30;;;;;;;7.57;3.40;;;21.90;99.90;;;;;;5117342;28;20201;-49
2023/06/05 09:41:57;;;;;;;8.43;3.60;;;21.90;99.90;;;;;;5117169;28;20634;-50
2023/06/05 09:44:25;;;;;;;10.13;4.03;;;21.90;99.90;;;;;;5117214;28;20562;-50
2023/06/05 09:47:12;;;;;;;8.13;3.47;;;21.90;99.90;;;;;;5117246;28;20518;-51
2023/06/05 09:49:41;;;;;;;9.03;3.73;;;22.00;99.90;;;;;;5115647;28;20661;-50
2023/06/05 09:52:11;;;;;;;6.97;3.23;;;22.00;99.90;;;;;;5117137;28;20185;-51
2023/06/05 09:54:39;;;;;;;7.83;3.90;;;22.10;99.90;;;;;;5116768;28;20667;-49
2023/06/05 09:57:06;;;;;;;9.17;3.97;;;22.10;99.90;;;;;;5115477;28;20191;-49
2023/06/05 09:59:35;;;;;;;8.57;4.20;;;22.10;99.90;;;;;;5116624;28;20225;-50
2023/06/05 10:02:05;;;;;;;6.37;3.70;;;22.10;99.90;;;;;;5116620;28;20665;-51
2023/06/05 10:04:38;;;;;;;8.33;3.50;;;22.20;99.90;;;;;;5116814;28;20198;-50
2023/06/05 10:07:05;;;;;;;7.00;3.63;;;22.10;99.90;;;;;;5116045;28;20186;-50
2023/06/05 10:09:33;;;;;;;6.80;3.00;;;22.10;99.90;;;;;;5117147;28;20181;-51
2023/06/05 10:11:59;;;;;;;6.67;3.17;;;22.20;99.90;;;;;;5116714;28;20265;-49
2023/06/05 10:14:25;;;;;;;7.63;3.50;;;22.20;99.90;;;;;;5116283;28;20729;-50
2023/06/05 10:16:52;;;;;;;7.70;3.60;;;22.20;99.90;;;;;;5116636;28;20185;-50
2023/06/05 10:19:21;;;;;;;4.73;3.17;;;22.30;99.90;;;;;;5116227;28;20676;-51
2023/06/05 10:21:48;;;;;;;7.20;3.03;;;22.40;99.90;;;;;;5116357;28;20182;-51
2023/06/05 10:24:31;;;;;;;5.83;3.43;;;22.60;99.90;;;;;;5116123;28;20198;-50
2023/06/05 10:27:18;;;;;;;7.27;3.57;;;22.70;99.90;;;;;;5116127;28;20170;-50
2023/06/05 10:29:52;;;;;;;7.00;2.70;;;22.80;99.90;;;;;;5116359;28;20179;-51
2023/06/05 10:32:36;;;;;;;6.03;2.67;;;22.80;99.90;;;;;;5116212;28;20638;-49
2023/06/05 10:35:36;;;;;;;7.13;2.93;;;22.90;99.90;;;;;;5116570;28;20197;-50
2023/06/05 10:38:11;;;;;;;7.10;3.00;;;22.90;99.90;;;;;;5115741;28;20209;-51
2023/06/05 10:40:37;;;;;;;6.40;2.80;;;22.90;99.90;;;;;;5116190;28;20176;-51
2023/06/05 10:43:25;;;;;;;6.10;2.90;;;23.10;99.90;;;;;;5116090;28;20174;-50
2023/06/05 10:45:51;;;;;;;7.83;2.83;;;23.10;99.90;;;;;;5116351;28;20178;-50
2023/06/05 10:48:17;;;;;;;7.83;2.83;;;23.20;99.90;;;;;;5115759;28;20206;-50
2023/06/05 10:50:43;;;;;;;12.57;2.80;;;23.10;99.90;;;;;;5115666;28;20197;-51
2023/06/05 10:53:49;;;;;;;3.67;2.40;;;23.10;99.90;;;;;;5115588;28;20178;-50
2023/06/05 10:56:56;;;;;;;8.90;2.50;;;23.10;99.90;;;;;;5115927;28;20232;-50
2023/06/05 10:59:35;;;;;;;4.57;2.30;;;23.20;99.90;;;;;;5115697;28;20210;-50
2023/06/05 11:02:10;;;;;;;4.67;2.60;;;23.20;99.90;;;;;;5115525;28;20155;-49
2023/06/05 11:04:46;;;;;;;7.90;2.93;;;23.30;99.90;;;;;;5115294;28;20249;-50
2023/06/05 11:07:24;;;;;;;8.60;2.60;;;23.30;99.90;;;;;;5115914;28;20185;-49
2023/06/05 11:10:05;;;;;;;4.87;2.40;;;23.40;99.90;;;;;;5115348;28;20603;-50
2023/06/05 11:12:42;;;;;;;3.93;2.30;;;23.50;99.90;;;;;;5115270;28;20174;-50
2023/06/05 11:15:15;;;;;;;2.67;1.93;;;23.60;99.90;;;;;;5113872;28;20225;-50
2023/06/05 11:17:45;;;;;;;4.13;2.10;;;23.70;99.90;;;;;;5114330;28;20178;-50
2023/06/05 11:20:22;;;;;;;7.83;2.30;;;23.80;99.90;;;;;;5115686;28;20161;-50
2023/06/05 11:22:55;;;;;;;4.50;2.30;;;23.80;99.90;;;;;;5115337;28;20186;-50
2023/06/05 11:25:21;;;;;;;4.97;2.30;;;23.90;99.90;;;;;;5115253;28;20243;-50
2023/06/05 11:28:01;;;;;;;4.53;2.17;;;23.90;99.90;;;;;;5114996;28;20175;-50
2023/06/05 11:30:38;;;;;;;7.18;2.20;;;23.90;99.90;;;;;;5114906;28;20170;-50
2023/06/05 11:33:08;;;;;;;9.60;2.40;;;24.00;99.90;;;;;;5114940;28;20169;-50
2023/06/05 11:35:35;;;;;;;3.97;2.38;;;24.10;99.90;;;;;;5115056;28;20182;-50
2023/06/05 11:38:10;;;;;;;6.70;2.20;;;24.20;99.90;;;;;;5114670;28;20309;-51
2023/06/05 11:40:37;;;;;;;3.35;1.80;;;24.20;99.80;;;;;;5114916;28;20166;-50
2023/06/05 11:43:05;;;;;;;3.95;1.80;;;24.20;99.90;;;;;;5114663;28;20175;-51
2023/06/05 11:45:32;;;;;;;6.10;2.20;;;24.30;99.90;;;;;;5113442;28;20189;-50
2023/06/05 11:48:25;;;;;;;6.25;2.65;;;24.30;99.90;;;;;;5114579;28;20186;-52
2023/06/05 11:51:05;;;;;;;4.63;2.20;;;24.40;99.90;;;;;;5112147;27;20658;-50
2023/06/05 11:53:32;;;;;;;3.47;2.42;;;24.50;99.90;;;;;;5113131;28;20250;-50
2023/06/05 11:58:35;;;;;;;4.72;2.30;;;24.40;99.30;;;;;;5114699;28;20213;-49
2023/06/05 12:01:21;;;;;;;5.40;2.45;;;24.50;99.00;;;;;;5114361;28;20155;-48
2023/06/05 12:03:48;;;;;;;6.70;2.13;;;24.60;99.30;;;;;;5113020;28;20218;-51
2023/06/05 12:06:17;;;;;;;5.18;1.90;;;24.70;97.50;;;;;;5114257;28;20540;-49
2023/06/05 12:08:44;;;;;;;9.98;2.50;;;24.70;96.50;;;;;;5114445;28;20186;-51
2023/06/05 12:11:39;;;;;;;5.10;2.40;;;24.80;99.00;;;;;;5114178;28;20181;-50
2023/06/05 12:14:06;;;;;;;5.78;2.83;;;24.90;99.90;;;;;;5096605;28;20232;-50
2023/06/05 12:16:32;;;;;;;4.75;2.33;;;25.10;95.70;;;;;;5114111;28;20669;-46
2023/06/05 12:18:58;;;;;;;5.93;2.63;;;25.10;97.10;;;;;;5114250;28;20289;-46
2023/06/05 12:21:26;;;;;;;4.85;2.20;;;25.20;96.00;;;;;;5114011;28;20646;-46
2023/06/05 12:24:01;;;;;;;5.97;2.63;;;25.30;96.60;;;;;;5113904;28;20190;-46
2023/06/05 12:26:29;;;;;;;3.47;2.17;;;25.40;98.40;;;;;;5114295;28;20154;-46
2023/06/05 12:29:04;;;;;;;5.07;2.58;;;25.50;96.90;;;;;;5113895;28;20186;-46
2023/06/05 12:31:35;;;;;;;6.35;2.10;;;25.60;95.50;;;;;;5114212;28;20162;-46
2023/06/05 12:34:04;;;;;;;5.47;2.13;;;25.70;94.00;;;;;;5114111;28;20206;-46
2023/06/05 12:36:31;;;;;;;5.60;2.22;;;25.70;95.10;;;;;;5114041;28;20174;-46
2023/06/05 12:39:03;;;;;;;4.70;2.58;;;25.80;95.40;;;;;;5114439;28;20301;-45
2023/06/05 12:41:30;;;;;;;4.07;2.10;;;25.80;94.00;;;;;;5113799;28;20235;-48
2023/06/05 12:44:00;;;;;;;3.25;2.20;;;25.80;94.10;;;;;;5113970;28;20200;-46
2023/06/05 12:46:26;;;;;;;7.95;2.22;;;25.80;95.20;;;;;;5113813;28;20209;-45
2023/06/05 12:48:51;;;;;;;4.38;2.13;;;26.00;95.10;;;;;;5113761;28;20193;-44
2023/06/05 12:51:17;;;;;;;8.68;3.05;;;25.90;93.80;;;;;;5113718;28;20519;-46
2023/06/05 12:53:43;;;;;;;5.15;2.17;;;25.90;93.30;;;;;;5113635;28;20319;-46